createdAt,value
2023-05-07T00:01:06.882Z,56.00
2023-05-07T00:03:34.964Z,56.60
2023-05-07T00:06:03.000Z,56.00
2023-05-07T00:08:30.940Z,56.00
2023-05-07T00:10:58.760Z,56.00
2023-05-07T00:13:26.828Z,56.00
2023-05-07T00:15:56.392Z,56.00
2023-05-07T00:18:24.242Z,56.00
2023-05-07T00:20:52.482Z,56.00
2023-05-07T00:23:20.349Z,56.00
2023-05-07T00:25:48.220Z,56.00
2023-05-07T00:28:16.071Z,56.00
2023-05-07T00:30:43.912Z,56.00
2023-05-07T00:33:13.118Z,56.00
2023-05-07T00:35:41.015Z,56.00
2023-05-07T00:38:09.160Z,56.00
2023-05-07T00:40:37.021Z,56.00
2023-05-07T00:43:04.877Z,56.00
2023-05-07T00:45:32.717Z,55.90
2023-05-07T00:48:02.914Z,56.00
2023-05-07T00:50:32.904Z,56.00
2023-05-07T00:53:01.592Z,56.00
2023-05-07T00:55:29.946Z,56.00
2023-05-07T00:57:58.279Z,56.00
2023-05-07T01:00:26.390Z,56.00
2023-05-07T01:02:54.374Z,55.90
2023-05-07T01:05:25.905Z,55.90
2023-05-07T01:07:56.979Z,55.90
2023-05-07T01:10:25.898Z,55.90
2023-05-07T01:12:55.769Z,55.90
2023-05-07T01:15:23.762Z,55.90
2023-05-07T01:17:51.752Z,55.90
2023-05-07T01:20:20.904Z,55.90
2023-05-07T01:22:51.057Z,55.90
2023-05-07T01:25:19.625Z,55.90
2023-05-07T01:27:47.525Z,55.90
2023-05-07T01:30:15.703Z,55.90
2023-05-07T01:32:47.265Z,55.90
2023-05-07T01:35:20.438Z,55.90
2023-05-07T01:37:51.392Z,55.90
2023-05-07T01:40:19.539Z,55.90
2023-05-07T01:42:49.109Z,55.90
2023-05-07T01:45:17.292Z,55.90
2023-05-07T01:47:46.726Z,55.90
2023-05-07T01:50:14.728Z,55.90
2023-05-07T01:52:43.026Z,55.90
2023-05-07T01:55:12.401Z,55.90
2023-05-07T01:57:40.406Z,55.90
2023-05-07T02:00:10.196Z,55.90
2023-05-07T02:02:39.192Z,55.90
2023-05-07T02:05:08.313Z,55.90
2023-05-07T02:07:36.463Z,55.90
2023-05-07T02:10:04.974Z,55.90
2023-05-07T02:12:34.276Z,55.90
2023-05-07T02:15:02.620Z,55.90
2023-05-07T02:17:32.827Z,55.90
2023-05-07T02:20:00.891Z,55.90
2023-05-07T02:22:28.757Z,55.90
2023-05-07T02:24:56.628Z,55.90
2023-05-07T02:27:24.478Z,55.90
2023-05-07T02:29:53.671Z,55.90
2023-05-07T02:32:21.522Z,55.90
2023-05-07T02:34:52.047Z,55.90
2023-05-07T02:37:19.948Z,55.90
2023-05-07T02:39:47.824Z,56.00
2023-05-07T02:42:15.665Z,55.90
2023-05-07T02:44:43.751Z,55.90
2023-05-07T02:47:14.072Z,55.90
2023-05-07T02:49:41.948Z,55.80
2023-05-07T02:52:10.283Z,55.90
2023-05-07T02:54:38.141Z,55.90
2023-05-07T02:57:06.004Z,56.00
2023-05-07T02:59:33.877Z,55.80
2023-05-07T03:02:01.755Z,56.00
2023-05-07T03:04:31.189Z,55.80
2023-05-07T03:06:59.264Z,55.90
2023-05-07T03:09:27.151Z,55.80
2023-05-07T03:11:55.093Z,55.80
2023-05-07T03:14:22.979Z,55.80
2023-05-07T03:16:51.276Z,55.80
2023-05-07T03:19:19.154Z,55.80
2023-05-07T03:21:48.440Z,55.90
2023-05-07T03:24:16.309Z,55.80
2023-05-07T03:26:44.159Z,55.90
2023-05-07T03:29:12.019Z,55.80
2023-05-07T03:31:39.945Z,55.80
2023-05-07T03:34:07.846Z,55.80
2023-05-07T03:36:35.745Z,55.90
2023-05-07T03:39:04.988Z,55.80
2023-05-07T03:41:32.865Z,55.80
2023-05-07T03:44:00.725Z,55.80
2023-05-07T03:46:29.178Z,55.80
2023-05-07T03:48:57.132Z,55.80
2023-05-07T03:51:25.074Z,55.80
2023-05-07T03:53:53.957Z,55.80
2023-05-07T03:56:23.165Z,55.90
2023-05-07T03:58:51.063Z,55.90
2023-05-07T04:01:18.907Z,55.90
2023-05-07T04:03:47.354Z,55.90
2023-05-07T04:06:15.730Z,55.90
2023-05-07T04:08:43.598Z,55.80
2023-05-07T04:11:11.438Z,55.90
2023-05-07T04:13:40.692Z,55.90
2023-05-07T04:16:09.006Z,55.90
2023-05-07T04:18:36.902Z,55.80
2023-05-07T04:21:04.843Z,55.90
2023-05-07T04:23:32.703Z,55.90
2023-05-07T04:26:01.823Z,55.90
2023-05-07T04:28:29.694Z,55.90
2023-05-07T04:30:59.465Z,55.90
2023-05-07T04:33:27.354Z,55.90
2023-05-07T04:35:55.315Z,55.90
2023-05-07T04:38:24.529Z,55.90
2023-05-07T04:40:52.386Z,55.90
2023-05-07T04:43:20.495Z,55.90
2023-05-07T04:45:50.262Z,55.90
2023-05-07T04:48:20.237Z,56.00
2023-05-07T04:50:50.163Z,55.90
2023-05-07T04:53:18.303Z,55.90
2023-05-07T04:55:47.013Z,55.90
2023-05-07T04:58:14.887Z,55.90
2023-05-07T05:00:43.382Z,55.90
2023-05-07T05:03:12.179Z,55.90
2023-05-07T05:05:41.507Z,55.90
2023-05-07T05:08:09.355Z,55.90
2023-05-07T05:10:37.212Z,56.00
2023-05-07T05:13:05.092Z,55.90
2023-05-07T05:15:34.069Z,55.90
2023-05-07T05:18:02.020Z,55.90
2023-05-07T05:20:29.904Z,55.90
2023-05-07T05:22:59.142Z,55.80
2023-05-07T05:25:27.054Z,55.80
2023-05-07T05:27:54.926Z,55.80
2023-05-07T05:30:23.244Z,55.80
2023-05-07T05:32:51.299Z,55.80
2023-05-07T05:35:19.299Z,55.90
2023-05-07T05:37:47.161Z,55.90
2023-05-07T05:40:16.399Z,55.80
2023-05-07T05:42:44.231Z,55.80
2023-05-07T05:45:12.452Z,55.80
2023-05-07T05:47:41.116Z,55.90
2023-05-07T05:50:10.423Z,55.90
2023-05-07T05:52:38.473Z,55.90
2023-05-07T05:55:07.215Z,55.90
2023-05-07T05:57:36.813Z,55.90
2023-05-07T06:00:06.338Z,55.90
2023-05-07T06:02:34.383Z,55.90
2023-05-07T06:05:02.454Z,55.90
2023-05-07T06:07:30.379Z,55.90
2023-05-07T06:09:58.458Z,55.90
2023-05-07T06:12:26.425Z,55.90
2023-05-07T06:14:55.802Z,55.90
2023-05-07T06:17:23.734Z,55.90
2023-05-07T06:19:51.578Z,55.90
2023-05-07T06:22:19.438Z,55.90
2023-05-07T06:24:47.318Z,55.90
2023-05-07T06:27:15.210Z,55.90
2023-05-07T06:29:43.075Z,55.90
2023-05-07T06:32:13.302Z,55.90
2023-05-07T06:34:41.953Z,55.90
2023-05-07T06:37:10.060Z,55.90
2023-05-07T06:39:38.019Z,55.90
2023-05-07T06:42:06.808Z,55.90
2023-05-07T06:44:34.725Z,55.90
2023-05-07T06:47:02.578Z,55.90
2023-05-07T06:49:32.351Z,55.90
2023-05-07T06:52:00.384Z,55.90
2023-05-07T06:54:28.362Z,55.80
2023-05-07T06:56:56.209Z,55.80
2023-05-07T06:59:24.178Z,55.90
2023-05-07T07:01:52.075Z,55.90
2023-05-07T07:04:20.010Z,55.90
2023-05-07T07:06:49.377Z,55.90
2023-05-07T07:09:17.683Z,56.00
2023-05-07T07:11:45.589Z,55.90
2023-05-07T07:14:14.028Z,55.90
2023-05-07T07:16:41.942Z,55.90
2023-05-07T07:19:09.945Z,55.90
2023-05-07T07:21:37.813Z,55.90
2023-05-07T07:24:07.495Z,56.00
2023-05-07T07:26:35.346Z,55.90
2023-05-07T07:29:03.214Z,55.90
2023-05-07T07:31:31.858Z,55.90
2023-05-07T07:33:59.922Z,55.90
2023-05-07T07:36:38.965Z,55.90
2023-05-07T07:39:15.262Z,56.00
2023-05-07T07:41:43.118Z,56.00
2023-05-07T07:44:16.110Z,56.00
2023-05-07T07:46:44.509Z,56.00
2023-05-07T07:49:12.425Z,56.00
2023-05-07T07:51:40.373Z,56.00
2023-05-07T07:54:08.306Z,56.10
2023-05-07T07:56:37.537Z,56.00
2023-05-07T07:59:05.378Z,56.10
2023-05-07T08:01:33.832Z,56.10
2023-05-07T08:04:04.284Z,56.10
2023-05-07T08:06:32.493Z,56.10
2023-05-07T08:09:00.466Z,56.10
2023-05-07T08:11:28.427Z,56.10
2023-05-07T08:13:58.073Z,56.10
2023-05-07T08:16:26.287Z,56.10
2023-05-07T08:18:54.202Z,56.10
2023-05-07T08:21:22.206Z,56.10
2023-05-07T08:23:50.058Z,56.10
2023-05-07T08:26:17.946Z,56.10
2023-05-07T08:28:45.828Z,56.10
2023-05-07T08:31:15.145Z,56.10
2023-05-07T08:33:43.041Z,56.20
2023-05-07T08:36:10.964Z,56.10
2023-05-07T08:38:38.787Z,56.10
2023-05-07T08:41:08.556Z,56.10
2023-05-07T08:43:39.915Z,56.10
2023-05-07T08:46:10.169Z,56.20
2023-05-07T08:48:39.814Z,56.10
2023-05-07T08:51:07.725Z,56.10
2023-05-07T08:53:35.738Z,56.20
2023-05-07T08:56:05.349Z,56.20
2023-05-07T08:58:33.280Z,56.20
2023-05-07T09:01:05.310Z,56.20
2023-05-07T09:03:33.395Z,56.20
2023-05-07T09:06:02.613Z,56.10
2023-05-07T09:08:30.645Z,56.20
2023-05-07T09:10:58.537Z,56.20
2023-05-07T09:13:26.827Z,56.20
2023-05-07T09:15:54.872Z,56.20
2023-05-07T09:18:22.863Z,56.20
2023-05-07T09:20:51.882Z,56.20
2023-05-07T09:23:22.275Z,56.20
2023-05-07T09:25:50.136Z,56.20
2023-05-07T09:28:18.007Z,56.20
2023-05-07T09:30:45.902Z,56.20
2023-05-07T09:33:13.798Z,56.30
2023-05-07T09:35:41.848Z,56.20
2023-05-07T09:38:10.217Z,56.20
2023-05-07T09:40:39.526Z,56.30
2023-05-07T09:43:15.048Z,56.20
2023-05-07T09:45:43.458Z,56.20
2023-05-07T09:48:12.591Z,56.20
2023-05-07T09:50:50.382Z,56.20
2023-05-07T09:53:19.019Z,56.20
2023-05-07T09:55:48.781Z,56.20
2023-05-07T09:58:18.438Z,56.20
2023-05-07T10:00:47.443Z,56.20
2023-05-07T10:03:16.296Z,56.30
2023-05-07T10:05:45.535Z,56.30
2023-05-07T10:08:14.000Z,56.30
2023-05-07T10:10:43.157Z,56.30
2023-05-07T10:13:12.637Z,56.20
2023-05-07T10:15:40.553Z,56.20
2023-05-07T10:18:09.582Z,56.20
2023-05-07T10:20:39.223Z,56.20
2023-05-07T10:23:07.931Z,56.30
2023-05-07T10:25:36.224Z,56.30
2023-05-07T10:28:08.728Z,56.20
2023-05-07T10:31:01.913Z,56.30
2023-05-07T10:33:32.942Z,56.90
2023-05-07T10:36:05.358Z,56.30
2023-05-07T10:38:33.496Z,56.30
2023-05-07T10:41:01.699Z,56.20
2023-05-07T10:43:41.669Z,56.20
2023-05-07T10:46:16.262Z,56.90
2023-05-07T10:49:15.114Z,56.20
2023-05-07T10:51:43.012Z,56.20
2023-05-07T10:54:24.718Z,56.20
2023-05-07T10:56:52.888Z,56.40
2023-05-07T10:59:35.732Z,56.20
2023-05-07T11:02:08.520Z,56.30
2023-05-07T11:04:36.622Z,56.30
2023-05-07T11:07:26.356Z,56.30
2023-05-07T11:10:11.929Z,56.30
2023-05-07T11:12:56.237Z,56.30
2023-05-07T11:15:52.061Z,56.30
2023-05-07T11:18:21.532Z,56.30
2023-05-07T11:20:52.208Z,56.30
2023-05-07T11:23:58.310Z,56.30
2023-05-07T11:26:27.027Z,56.30
2023-05-07T11:28:55.387Z,56.30
2023-05-07T11:31:25.585Z,56.20
2023-05-07T11:33:55.721Z,56.30
2023-05-07T11:36:26.051Z,56.30
2023-05-07T11:38:54.053Z,56.40
2023-05-07T11:41:22.044Z,56.30
2023-05-07T11:43:57.932Z,56.30
2023-05-07T11:46:25.968Z,56.40
2023-05-07T11:48:55.664Z,56.30
2023-05-07T11:51:26.878Z,56.30
2023-05-07T11:53:55.447Z,56.40
2023-05-07T11:56:23.318Z,56.30
2023-05-07T11:58:52.979Z,56.40
2023-05-07T12:01:20.907Z,56.30
2023-05-07T12:03:48.978Z,56.30
2023-05-07T12:06:18.786Z,56.40
2023-05-07T12:08:48.500Z,56.40
2023-05-07T12:11:19.470Z,56.40
2023-05-07T12:13:47.473Z,56.40
2023-05-07T12:16:16.046Z,56.40
2023-05-07T12:18:44.324Z,56.40
2023-05-07T12:21:12.807Z,56.40
2023-05-07T12:23:42.472Z,56.40
2023-05-07T12:26:11.308Z,56.40
2023-05-07T12:28:40.601Z,56.40
2023-05-07T12:31:09.254Z,56.40
2023-05-07T12:33:37.735Z,56.40
2023-05-07T12:36:08.994Z,56.40
2023-05-07T12:38:38.326Z,56.40
2023-05-07T12:41:08.419Z,56.40
2023-05-07T12:43:36.409Z,56.40
2023-05-07T12:46:08.959Z,56.40
2023-05-07T12:48:41.036Z,56.40
2023-05-07T12:51:11.104Z,56.40
2023-05-07T12:53:43.192Z,56.40
2023-05-07T12:56:12.485Z,56.40
2023-05-07T12:58:40.760Z,56.40
2023-05-07T13:01:11.016Z,56.40
2023-05-07T13:03:40.202Z,56.40
2023-05-07T13:06:10.511Z,56.40
2023-05-07T13:08:42.395Z,56.40
2023-05-07T13:11:12.724Z,56.50
2023-05-07T13:13:42.603Z,56.40
2023-05-07T13:16:11.928Z,56.50
2023-05-07T13:18:41.868Z,56.50
2023-05-07T13:21:11.070Z,56.50
2023-05-07T13:23:39.648Z,56.50
2023-05-07T13:26:24.865Z,56.50
2023-05-07T13:28:55.495Z,56.50
2023-05-07T13:31:23.560Z,56.50
2023-05-07T13:33:51.561Z,56.50
2023-05-07T13:36:19.459Z,56.50
2023-05-07T13:38:47.442Z,56.50
2023-05-07T13:41:15.782Z,56.50
2023-05-07T13:43:43.593Z,56.50
2023-05-07T13:46:12.892Z,56.50
2023-05-07T13:48:40.777Z,56.50
2023-05-07T13:51:08.766Z,56.50
2023-05-07T13:53:36.671Z,56.50
2023-05-07T13:56:05.523Z,56.50
2023-05-07T13:58:33.921Z,56.50
2023-05-07T14:01:01.997Z,56.50
2023-05-07T14:03:32.880Z,56.50
2023-05-07T14:06:02.324Z,56.50
2023-05-07T14:08:31.627Z,56.60
2023-05-07T14:10:59.879Z,56.60
2023-05-07T14:13:28.273Z,56.60
2023-05-07T14:15:56.294Z,56.60
2023-05-07T14:18:24.167Z,56.60
2023-05-07T14:20:53.521Z,56.60
2023-05-07T14:23:26.476Z,56.60
2023-05-07T14:25:54.437Z,56.60
2023-05-07T14:28:22.397Z,56.60
2023-05-07T14:30:50.350Z,56.60
2023-05-07T14:33:19.698Z,56.60
2023-05-07T14:35:49.714Z,56.60
2023-05-07T14:38:19.089Z,56.60
2023-05-07T14:40:47.120Z,56.60
2023-05-07T14:43:14.959Z,56.60
2023-05-07T14:45:43.218Z,56.60
2023-05-07T14:48:15.994Z,56.60
2023-05-07T14:50:44.118Z,56.60
2023-05-07T14:53:11.963Z,56.60
2023-05-07T14:55:41.282Z,57.20
2023-05-07T14:58:09.360Z,56.60
2023-05-07T15:00:37.441Z,56.60
2023-05-07T15:03:08.959Z,56.60
2023-05-07T15:05:37.898Z,56.60
2023-05-07T15:08:06.153Z,56.60
2023-05-07T15:10:41.624Z,56.60
2023-05-07T15:13:14.690Z,56.60
2023-05-07T15:15:45.027Z,56.60
2023-05-07T15:18:12.980Z,56.60
2023-05-07T15:20:41.068Z,56.60
2023-05-07T15:23:11.146Z,56.60
2023-05-07T15:25:39.139Z,56.60
2023-05-07T15:28:07.283Z,56.60
2023-05-07T15:30:36.498Z,56.60
2023-05-07T15:33:04.629Z,56.70
2023-05-07T15:35:32.760Z,56.60
2023-05-07T15:38:00.659Z,56.60
2023-05-07T15:40:29.365Z,56.60
2023-05-07T15:42:58.065Z,56.70
2023-05-07T15:45:26.469Z,56.60
2023-05-07T15:47:55.722Z,56.60
2023-05-07T15:50:23.646Z,56.60
2023-05-07T15:52:51.568Z,56.60
2023-05-07T15:55:19.447Z,56.70
2023-05-07T15:57:47.628Z,56.70
2023-05-07T16:00:17.597Z,56.70
2023-05-07T16:02:45.840Z,56.70
2023-05-07T16:05:15.924Z,56.70
2023-05-07T16:07:44.378Z,56.80
2023-05-07T16:10:13.047Z,56.70
2023-05-07T16:12:41.080Z,56.70
2023-05-07T16:15:09.734Z,56.70
2023-05-07T16:17:38.042Z,56.70
2023-05-07T16:20:09.100Z,56.70
2023-05-07T16:22:38.366Z,56.80
2023-05-07T16:25:07.130Z,56.70
2023-05-07T16:27:34.998Z,56.70
2023-05-07T16:30:03.252Z,56.70
2023-05-07T16:32:31.216Z,56.70
2023-05-07T16:34:59.110Z,56.70
2023-05-07T16:37:26.992Z,56.70
2023-05-07T16:39:56.438Z,56.70
2023-05-07T16:42:24.310Z,56.70
2023-05-07T16:44:52.144Z,56.70
2023-05-07T16:47:20.100Z,56.70
2023-05-07T16:49:48.750Z,56.80
2023-05-07T16:52:16.583Z,56.80
2023-05-07T16:54:44.460Z,56.80
2023-05-07T16:57:13.704Z,56.80
2023-05-07T16:59:41.545Z,56.70
2023-05-07T17:02:09.528Z,56.80
2023-05-07T17:04:37.491Z,56.80
2023-05-07T17:07:06.551Z,56.80
2023-05-07T17:09:34.418Z,56.80
2023-05-07T17:12:02.679Z,56.80
2023-05-07T17:14:32.278Z,56.80
2023-05-07T17:17:00.165Z,56.80
2023-05-07T17:19:28.095Z,57.50
2023-05-07T17:21:55.924Z,56.80
2023-05-07T17:24:23.741Z,56.80
2023-05-07T17:26:51.662Z,56.80
2023-05-07T17:29:20.057Z,56.80
2023-05-07T17:31:49.338Z,56.80
2023-05-07T17:34:17.245Z,56.80
2023-05-07T17:36:46.026Z,56.80
2023-05-07T17:39:13.854Z,56.80
2023-05-07T17:41:41.751Z,56.80
2023-05-07T17:44:09.617Z,56.80
2023-05-07T17:46:37.442Z,56.80
2023-05-07T17:49:06.685Z,56.80
2023-05-07T17:51:49.794Z,56.80
2023-05-07T17:54:21.497Z,56.80
2023-05-07T17:56:49.372Z,56.90
2023-05-07T17:59:17.208Z,56.90
2023-05-07T18:01:45.767Z,56.80
2023-05-07T18:04:15.304Z,56.90
2023-05-07T18:06:43.185Z,56.80
2023-05-07T18:09:11.337Z,56.90
2023-05-07T18:11:39.178Z,56.90
2023-05-07T18:14:07.058Z,56.80
2023-05-07T18:16:35.666Z,56.80
2023-05-07T18:19:03.666Z,56.80
2023-05-07T18:21:32.858Z,56.80
2023-05-07T18:24:00.749Z,56.80
2023-05-07T18:26:28.632Z,56.80
2023-05-07T18:28:56.515Z,56.80
2023-05-07T18:31:24.562Z,56.90
2023-05-07T18:33:53.450Z,56.80
2023-05-07T18:36:21.391Z,56.80
2023-05-07T18:38:50.618Z,56.80
2023-05-07T18:41:18.450Z,56.80
2023-05-07T18:43:46.313Z,56.80
2023-05-07T18:46:14.234Z,56.90
2023-05-07T18:48:42.064Z,56.80
2023-05-07T18:51:12.600Z,56.90
2023-05-07T18:53:40.574Z,56.90
2023-05-07T18:56:09.953Z,56.80
2023-05-07T18:58:37.816Z,56.80
2023-05-07T19:01:08.128Z,56.80
2023-05-07T19:03:36.467Z,56.90
2023-05-07T19:06:05.625Z,56.90
2023-05-07T19:08:33.554Z,57.60
2023-05-07T19:11:01.393Z,56.90
2023-05-07T19:13:30.809Z,56.90
2023-05-07T19:15:58.775Z,56.80
2023-05-07T19:18:26.707Z,56.90
2023-05-07T19:20:55.318Z,56.90
2023-05-07T19:23:23.545Z,56.90
2023-05-07T19:25:51.428Z,56.90
2023-05-07T19:28:19.801Z,56.90
2023-05-07T19:30:49.782Z,56.90
2023-05-07T19:33:17.638Z,56.90
2023-05-07T19:35:45.906Z,56.90
2023-05-07T19:38:13.784Z,56.90
2023-05-07T19:40:41.640Z,56.90
2023-05-07T19:43:09.513Z,56.90
2023-05-07T19:45:37.584Z,56.90
2023-05-07T19:48:07.241Z,56.90
2023-05-07T19:50:35.108Z,56.90
2023-05-07T19:53:02.976Z,56.90
2023-05-07T19:55:30.847Z,56.90
2023-05-07T19:57:58.729Z,56.90
2023-05-07T20:00:31.528Z,56.90
2023-05-07T20:02:59.641Z,56.90
2023-05-07T20:05:28.953Z,56.90
2023-05-07T20:07:56.918Z,56.90
2023-05-07T20:10:24.790Z,56.90
2023-05-07T20:12:52.719Z,57.00
2023-05-07T20:15:21.142Z,56.90
2023-05-07T20:17:49.146Z,56.90
2023-05-07T20:20:17.067Z,56.90
2023-05-07T20:22:46.270Z,57.00
2023-05-07T20:25:14.989Z,57.00
2023-05-07T20:27:42.894Z,57.00
2023-05-07T20:30:12.003Z,57.00
2023-05-07T20:32:40.124Z,57.00
2023-05-07T20:35:08.525Z,57.00
2023-05-07T20:37:36.720Z,57.00
2023-05-07T20:40:07.605Z,57.00
2023-05-07T20:42:36.216Z,57.00
2023-05-07T20:45:04.398Z,57.00
2023-05-07T20:47:33.555Z,57.00
2023-05-07T20:50:01.662Z,57.00
2023-05-07T20:52:29.553Z,57.00
2023-05-07T20:54:57.444Z,57.00
2023-05-07T20:57:26.673Z,57.00
2023-05-07T20:59:54.616Z,57.00
2023-05-07T21:02:22.466Z,57.00
2023-05-07T21:04:52.204Z,57.00
2023-05-07T21:07:20.111Z,57.00
2023-05-07T21:09:47.952Z,57.00
2023-05-07T21:12:15.806Z,57.00
2023-05-07T21:14:45.090Z,57.00
2023-05-07T21:17:12.962Z,57.00
2023-05-07T21:19:43.070Z,57.10
2023-05-07T21:22:10.971Z,57.00
2023-05-07T21:24:38.863Z,57.00
2023-05-07T21:27:06.729Z,57.00
2023-05-07T21:29:34.652Z,57.00
2023-05-07T21:32:05.368Z,57.00
2023-05-07T21:34:33.757Z,57.00
2023-05-07T21:37:04.067Z,57.10
2023-05-07T21:39:31.960Z,57.10
2023-05-07T21:42:02.014Z,57.00
2023-05-07T21:44:30.763Z,57.10
2023-05-07T21:46:58.853Z,57.10
2023-05-07T21:49:28.060Z,57.10
2023-05-07T21:51:56.111Z,57.10
2023-05-07T21:54:23.984Z,57.10
2023-05-07T21:56:51.822Z,57.10
2023-05-07T21:59:19.709Z,57.10
2023-05-07T22:01:47.603Z,57.10
2023-05-07T22:04:15.546Z,57.70
2023-05-07T22:06:44.831Z,57.00
2023-05-07T22:09:13.021Z,57.10
2023-05-07T22:11:40.952Z,57.10
2023-05-07T22:14:08.821Z,57.10
2023-05-07T22:16:36.881Z,57.10
2023-05-07T22:19:04.925Z,57.10
2023-05-07T22:21:32.759Z,57.10
2023-05-07T22:24:02.081Z,57.10
2023-05-07T22:26:29.973Z,57.10
2023-05-07T22:28:57.824Z,57.10
2023-05-07T22:31:25.726Z,57.10
2023-05-07T22:33:53.596Z,57.10
2023-05-07T22:36:21.460Z,57.10
2023-05-07T22:38:49.294Z,57.10
2023-05-07T22:41:18.486Z,57.10
2023-05-07T22:43:46.338Z,57.10
2023-05-07T22:46:15.059Z,57.10
2023-05-07T22:48:43.246Z,57.10
2023-05-07T22:51:14.392Z,57.10
2023-05-07T22:53:42.621Z,57.10
2023-05-07T22:56:10.945Z,57.10
2023-05-07T22:58:40.230Z,57.10
2023-05-07T23:01:13.115Z,57.10
2023-05-07T23:03:41.160Z,57.10
2023-05-07T23:06:09.240Z,57.10
2023-05-07T23:08:37.104Z,57.10
2023-05-07T23:11:05.194Z,57.10
2023-05-07T23:13:33.045Z,57.10
2023-05-07T23:16:02.281Z,57.00
2023-05-07T23:18:30.315Z,57.10
2023-05-07T23:20:58.181Z,57.10
2023-05-07T23:23:26.284Z,57.10
2023-05-07T23:25:54.400Z,57.10
2023-05-07T23:28:22.249Z,57.10
2023-05-07T23:30:50.164Z,57.00
2023-05-07T23:33:19.652Z,57.00
2023-05-07T23:35:47.550Z,57.10
2023-05-07T23:38:15.477Z,57.00
2023-05-07T23:40:43.468Z,57.10
2023-05-07T23:43:11.333Z,57.10
2023-05-07T23:45:39.194Z,57.00
2023-05-07T23:48:07.431Z,57.10
2023-05-07T23:50:36.992Z,57.10
2023-05-07T23:53:04.847Z,57.00
2023-05-07T23:55:32.725Z,57.00
2023-05-07T23:58:00.682Z,57.00
